Stetsonville, Wisconsin
Current Conditions -  °F | °C
As of 2:35 PM on Monday 24 Nov 2014 (Local Time) from KMDZ Reporting Station
Moderate Snow Moderate Snow  
Wind Chill: 21°   Ceiling: 600
Heat Index: 30°   Visibility: 0.5mi
Dew Point: 29°   Wind: 9mph
Humidity: 96%   Direction: 330°NNW
Pressure: 29.27"   Gusts: NA
Location:  45.08°N, 90.32°W
Report Text: KMDZ 242035Z AUTO 33008KT 1/2SM SN OVC006 M01/M02 A2927 RMK AO2 P0001 T10121017
Loading
Personal Weather Stations






























Interactive Weather Map New forecast layout! Learn more

10-Day Weather Forecast

Advertisements
Track Severe Weather on mobile